createdAt,value
2023-04-02T00:03:45.310Z,6.14
2023-04-02T00:06:33.156Z,6.29
2023-04-02T00:09:13.569Z,6.53
2023-04-02T00:11:49.169Z,6.43
2023-04-02T00:14:33.566Z,6.47
2023-04-02T00:17:05.039Z,6.15
2023-04-02T00:19:38.321Z,6.45
2023-04-02T00:22:09.669Z,6.42
2023-04-02T00:24:40.120Z,6.64
2023-04-02T00:27:12.340Z,6.49
2023-04-02T00:29:50.793Z,6.63
2023-04-02T00:32:22.480Z,6.75
2023-04-02T00:34:50.017Z,6.44
2023-04-02T00:37:23.868Z,6.27
2023-04-02T00:40:02.656Z,6.29
2023-04-02T00:42:34.491Z,6.49
2023-04-02T00:45:06.629Z,6.51
2023-04-02T00:47:37.651Z,6.20
2023-04-02T00:50:16.909Z,6.42
2023-04-02T00:52:48.251Z,6.47
2023-04-02T00:55:21.748Z,6.46
2023-04-02T00:57:52.992Z,6.58
2023-04-02T01:00:32.372Z,6.43
2023-04-02T01:03:17.923Z,6.57
2023-04-02T01:05:51.174Z,6.83
2023-04-02T01:08:29.738Z,6.73
2023-04-02T01:11:29.024Z,6.83
2023-04-02T01:14:02.943Z,6.60
2023-04-02T01:16:37.011Z,6.73
2023-04-02T01:19:44.387Z,6.59
2023-04-02T01:22:31.018Z,6.78
2023-04-02T01:24:58.544Z,6.93
2023-04-02T01:27:51.951Z,6.72
2023-04-02T01:30:21.202Z,6.90
2023-04-02T01:32:51.312Z,7.17
2023-04-02T01:35:19.456Z,7.34
2023-04-02T01:37:59.126Z,7.53
2023-04-02T01:40:35.272Z,7.79
2023-04-02T01:43:35.263Z,7.51
2023-04-02T01:46:24.363Z,7.61
2023-04-02T01:48:57.410Z,7.53
2023-04-02T01:51:33.822Z,7.35
2023-04-02T01:54:14.506Z,7.17
2023-04-02T01:56:42.870Z,7.14
2023-04-02T01:59:11.644Z,7.44
2023-04-02T02:01:51.855Z,7.13
2023-04-02T02:04:22.900Z,7.13
2023-04-02T02:06:51.173Z,7.33
2023-04-02T02:09:32.772Z,7.77
2023-04-02T02:12:02.879Z,7.89
2023-04-02T02:14:31.363Z,8.05
2023-04-02T02:17:02.512Z,8.22
2023-04-02T02:19:37.062Z,8.18
2023-04-02T02:22:26.149Z,7.76
2023-04-02T02:24:54.636Z,7.64
2023-04-02T02:27:24.217Z,8.03
2023-04-02T02:30:04.155Z,7.91
2023-04-02T02:32:33.614Z,7.55
2023-04-02T02:35:20.260Z,7.77
2023-04-02T02:37:55.351Z,8.20
2023-04-02T02:40:30.657Z,8.18
2023-04-02T02:43:03.535Z,8.27
2023-04-02T02:45:38.037Z,7.67
2023-04-02T02:48:12.985Z,7.71
2023-04-02T02:50:45.790Z,7.60
2023-04-02T02:53:21.412Z,7.42
2023-04-02T02:55:54.043Z,7.48
2023-04-02T02:58:28.608Z,7.52
2023-04-02T03:01:18.499Z,8.02
2023-04-02T03:03:49.005Z,8.08
2023-04-02T03:06:17.782Z,7.94
2023-04-02T03:09:14.098Z,8.10
2023-04-02T03:11:57.436Z,7.73
2023-04-02T03:15:03.575Z,7.75
2023-04-02T03:17:46.724Z,7.33
2023-04-02T03:20:49.040Z,7.14
2023-04-02T03:23:27.552Z,7.49
2023-04-02T03:26:02.737Z,7.14
2023-04-02T03:28:33.560Z,7.63
2023-04-02T03:31:11.300Z,7.22
2023-04-02T03:33:43.719Z,7.30
2023-04-02T03:36:28.671Z,7.34
2023-04-02T03:39:11.496Z,7.84
2023-04-02T03:41:45.534Z,7.86
2023-04-02T03:44:44.870Z,8.28
2023-04-02T03:47:31.613Z,8.38
2023-04-02T03:50:06.298Z,8.06
2023-04-02T03:52:37.486Z,7.54
2023-04-02T03:55:19.465Z,7.73
2023-04-02T03:58:11.787Z,8.12
2023-04-02T04:01:02.083Z,8.24
2023-04-02T04:03:42.920Z,8.12
2023-04-02T04:06:20.201Z,8.03
2023-04-02T04:08:54.826Z,8.03
2023-04-02T04:11:37.889Z,7.56
2023-04-02T04:14:13.936Z,7.56
2023-04-02T04:16:54.202Z,7.37
2023-04-02T04:19:32.686Z,7.49
2023-04-02T04:22:11.113Z,7.16
2023-04-02T04:24:41.423Z,7.49
2023-04-02T04:27:34.740Z,7.30
2023-04-02T04:30:25.832Z,7.23
2023-04-02T04:33:04.160Z,7.20
2023-04-02T04:35:40.932Z,7.34
2023-04-02T04:38:15.831Z,6.81
2023-04-02T04:40:53.942Z,6.99
2023-04-02T04:43:40.872Z,7.22
2023-04-02T04:46:26.303Z,6.54
2023-04-02T04:49:17.303Z,6.57
2023-04-02T04:52:08.181Z,6.35
2023-04-02T04:54:39.263Z,6.31
2023-04-02T04:57:31.779Z,6.03
2023-04-02T05:00:29.253Z,5.89
2023-04-02T05:03:14.770Z,5.73
2023-04-02T05:05:42.550Z,5.90
2023-04-02T05:08:17.743Z,5.55
2023-04-02T05:11:00.438Z,5.91
2023-04-02T05:13:33.481Z,6.01
2023-04-02T05:16:20.507Z,6.16
2023-04-02T05:18:59.428Z,6.22
2023-04-02T05:21:44.088Z,5.75
2023-04-02T05:24:39.565Z,5.55
2023-04-02T05:27:21.381Z,5.83
2023-04-02T05:29:59.565Z,5.66
2023-04-02T05:32:34.842Z,5.59
2023-04-02T05:35:07.753Z,5.57
2023-04-02T05:37:40.695Z,5.54
2023-04-02T05:40:27.683Z,5.82
2023-04-02T05:42:56.637Z,5.70
2023-04-02T05:45:39.184Z,5.35
2023-04-02T05:48:21.468Z,5.30
2023-04-02T05:50:55.538Z,4.87
2023-04-02T05:53:40.292Z,4.90
2023-04-02T05:56:18.713Z,5.11
2023-04-02T05:58:56.461Z,5.56
2023-04-02T06:01:45.816Z,5.36
2023-04-02T06:04:20.573Z,5.31
2023-04-02T06:07:16.870Z,4.98
2023-04-02T06:10:03.725Z,4.75
2023-04-02T06:13:04.040Z,4.60
2023-04-02T06:15:38.684Z,4.49
2023-04-02T06:18:47.874Z,4.32
2023-04-02T06:21:18.665Z,4.17
2023-04-02T06:24:01.904Z,4.63
2023-04-02T06:26:38.573Z,4.53
2023-04-02T06:29:15.668Z,4.39
2023-04-02T06:31:52.584Z,4.46
2023-04-02T06:34:24.211Z,4.16
2023-04-02T06:37:04.444Z,4.23
2023-04-02T06:39:34.527Z,4.00
2023-04-02T06:42:22.137Z,3.93
2023-04-02T06:45:01.338Z,3.64
2023-04-02T06:48:15.848Z,4.37
2023-04-02T06:50:57.134Z,4.26
2023-04-02T06:53:38.239Z,3.91
2023-04-02T06:56:35.882Z,4.05
2023-04-02T06:59:04.827Z,4.13
2023-04-02T07:01:37.552Z,3.91
2023-04-02T07:04:05.597Z,3.68
2023-04-02T07:06:43.758Z,4.09
2023-04-02T07:09:13.645Z,4.18
2023-04-02T07:11:48.558Z,3.76
2023-04-02T07:14:20.614Z,3.45
2023-04-02T07:16:58.018Z,3.68
2023-04-02T07:19:25.151Z,4.01
2023-04-02T07:21:56.382Z,3.51
2023-04-02T07:24:26.226Z,3.74
2023-04-02T07:26:53.602Z,3.78
2023-04-02T07:29:21.242Z,3.65
2023-04-02T07:31:51.044Z,3.62
2023-04-02T07:34:20.978Z,3.61
2023-04-02T07:36:51.265Z,3.56
2023-04-02T07:39:20.910Z,3.76
2023-04-02T07:41:58.012Z,3.66
2023-04-02T07:44:25.074Z,3.79
2023-04-02T07:46:52.829Z,3.78
2023-04-02T07:49:19.873Z,3.73
2023-04-02T07:51:47.783Z,3.68
2023-04-02T07:54:14.904Z,3.40
2023-04-02T07:56:42.452Z,3.75
2023-04-02T07:59:10.780Z,4.21
2023-04-02T08:01:38.817Z,4.20
2023-04-02T08:04:08.375Z,3.47
2023-04-02T08:06:42.092Z,3.81
2023-04-02T08:09:32.026Z,3.87
2023-04-02T08:12:07.639Z,3.36
2023-04-02T08:14:34.727Z,3.51
2023-04-02T08:17:02.233Z,3.30
2023-04-02T08:19:29.873Z,2.98
2023-04-02T08:21:57.973Z,3.33
2023-04-02T08:24:28.337Z,3.30
2023-04-02T08:26:57.699Z,3.50
2023-04-02T08:29:25.726Z,3.86
2023-04-02T08:31:53.569Z,4.32
2023-04-02T08:34:20.820Z,4.21
2023-04-02T08:36:48.557Z,4.14
2023-04-02T08:39:19.249Z,4.34
2023-04-02T08:42:40.325Z,4.16
2023-04-02T08:45:24.199Z,4.29
2023-04-02T08:48:04.907Z,4.29
2023-04-02T08:50:38.228Z,4.27
2023-04-02T08:53:28.148Z,4.63
2023-04-02T08:56:06.108Z,4.21
2023-04-02T08:58:43.461Z,3.95
2023-04-02T09:01:48.337Z,4.06
2023-04-02T09:04:20.397Z,4.00
2023-04-02T09:06:50.352Z,3.91
2023-04-02T09:09:17.738Z,3.76
2023-04-02T09:12:05.577Z,3.50
2023-04-02T09:15:18.588Z,4.03
2023-04-02T09:18:19.291Z,4.14
2023-04-02T09:21:37.147Z,4.73
2023-04-02T09:24:05.616Z,3.81
2023-04-02T09:26:34.623Z,4.47
2023-04-02T09:29:12.804Z,4.15
2023-04-02T09:31:45.203Z,4.66
2023-04-02T09:34:36.996Z,4.02
2023-04-02T09:37:18.952Z,4.06
2023-04-02T09:39:46.585Z,4.46
2023-04-02T09:42:46.795Z,4.69
2023-04-02T09:45:24.286Z,4.52
2023-04-02T09:48:20.450Z,4.84
2023-04-02T09:50:47.853Z,4.80
2023-04-02T09:53:30.238Z,4.59
2023-04-02T09:56:14.292Z,4.06
2023-04-02T09:58:45.809Z,4.80
2023-04-02T10:01:29.629Z,4.59
2023-04-02T10:04:00.012Z,4.85
2023-04-02T10:06:29.736Z,4.64
2023-04-02T10:09:21.664Z,5.00
2023-04-02T10:11:52.206Z,4.91
2023-04-02T10:14:25.136Z,4.59
2023-04-02T10:17:07.970Z,4.34
2023-04-02T10:19:41.655Z,4.25
2023-04-02T10:22:21.129Z,3.74
2023-04-02T10:24:49.397Z,3.86
2023-04-02T10:27:55.121Z,4.04
2023-04-02T10:31:01.886Z,3.86
2023-04-02T10:33:37.472Z,3.75
2023-04-02T10:36:19.554Z,3.64
2023-04-02T10:39:05.228Z,3.54
2023-04-02T10:41:32.859Z,3.63
2023-04-02T10:44:16.694Z,4.04
2023-04-02T10:47:08.168Z,4.27
2023-04-02T10:49:50.910Z,3.90
2023-04-02T10:52:31.211Z,4.04
2023-04-02T10:55:04.764Z,4.31
2023-04-02T10:57:38.305Z,4.41
2023-04-02T11:00:08.263Z,4.24
2023-04-02T11:02:54.190Z,3.91
2023-04-02T11:05:45.938Z,4.03
2023-04-02T11:08:47.716Z,3.76
2023-04-02T11:11:19.216Z,3.95
2023-04-02T11:14:04.368Z,4.21
2023-04-02T11:16:34.352Z,3.65
2023-04-02T11:19:15.609Z,3.47
2023-04-02T11:21:58.055Z,3.95
2023-04-02T11:24:33.090Z,3.45
2023-04-02T11:27:14.469Z,3.43
2023-04-02T11:29:58.700Z,3.71
2023-04-02T11:32:32.535Z,3.79
2023-04-02T11:35:07.472Z,3.55
2023-04-02T11:37:39.848Z,3.53
2023-04-02T11:40:11.462Z,3.82
2023-04-02T11:42:41.896Z,4.31
2023-04-02T11:45:21.864Z,3.95
2023-04-02T11:48:02.077Z,4.16
2023-04-02T11:50:35.769Z,3.42
2023-04-02T11:53:06.772Z,3.71
2023-04-02T11:55:39.549Z,3.30
2023-04-02T11:58:29.451Z,3.51
2023-04-02T12:01:05.553Z,3.65
2023-04-02T12:03:47.854Z,3.40
2023-04-02T12:06:47.241Z,3.82
2023-04-02T12:09:33.359Z,3.69
2023-04-02T12:12:17.148Z,3.59
2023-04-02T12:15:01.933Z,3.83
2023-04-02T12:17:32.623Z,3.43
2023-04-02T12:20:22.878Z,3.11
2023-04-02T12:22:53.268Z,3.46
2023-04-02T12:25:31.476Z,3.06
2023-04-02T12:28:19.360Z,3.18
2023-04-02T12:30:49.001Z,3.12
2023-04-02T12:33:22.557Z,3.15
2023-04-02T12:35:55.030Z,3.22
2023-04-02T12:38:29.421Z,3.34
2023-04-02T12:41:04.661Z,3.19
2023-04-02T12:43:36.889Z,3.22
2023-04-02T12:46:08.387Z,3.03
2023-04-02T12:48:36.614Z,3.06
2023-04-02T12:51:06.735Z,2.55
2023-04-02T12:53:40.777Z,3.24
2023-04-02T12:56:18.597Z,3.24
2023-04-02T12:59:07.309Z,3.04
2023-04-02T13:01:34.557Z,3.11
2023-04-02T13:04:18.620Z,3.19
2023-04-02T13:06:52.404Z,3.12
2023-04-02T13:09:42.228Z,2.66
2023-04-02T13:12:45.153Z,2.90
2023-04-02T13:15:47.357Z,3.04
2023-04-02T13:18:24.328Z,2.62
2023-04-02T13:24:42.141Z,2.89
2023-04-02T13:27:15.445Z,2.53
2023-04-02T13:29:50.061Z,2.82
2023-04-02T13:32:52.572Z,2.96
2023-04-02T13:35:30.347Z,3.26
2023-04-02T13:38:06.392Z,2.76
2023-04-02T13:40:34.618Z,2.71
2023-04-02T13:43:03.511Z,2.92
2023-04-02T13:45:43.805Z,2.53
2023-04-02T13:48:23.584Z,3.06
2023-04-02T13:50:53.615Z,2.86
2023-04-02T13:53:33.714Z,2.97
2023-04-02T13:56:02.557Z,3.41
2023-04-02T13:58:31.189Z,2.93
2023-04-02T14:00:58.890Z,2.82
2023-04-02T14:03:37.537Z,2.78
2023-04-02T14:06:12.017Z,2.91
2023-04-02T14:09:10.557Z,3.02
2023-04-02T14:11:47.570Z,3.22
2023-04-02T14:14:43.627Z,3.18
2023-04-02T14:17:35.559Z,3.36
2023-04-02T14:20:25.660Z,3.12
2023-04-02T14:23:24.019Z,3.00
2023-04-02T14:26:10.219Z,2.82
2023-04-02T14:28:57.654Z,2.88
2023-04-02T14:32:15.620Z,2.74
2023-04-02T14:34:59.412Z,3.10
2023-04-02T14:38:56.819Z,3.24
2023-04-02T14:45:57.581Z,3.11
2023-04-02T14:49:34.271Z,2.51
2023-04-02T14:52:13.517Z,2.87
2023-04-02T14:54:55.617Z,2.88
2023-04-02T15:01:21.745Z,3.20
2023-04-02T15:04:07.089Z,2.85
2023-04-02T15:06:49.882Z,2.92
2023-04-02T15:09:39.360Z,3.04
2023-04-02T15:12:28.496Z,2.96
2023-04-02T15:15:46.373Z,2.77
2023-04-02T15:18:54.284Z,2.54
2023-04-02T15:22:25.846Z,2.80
2023-04-02T15:25:39.813Z,3.10
2023-04-02T15:28:42.428Z,2.42
2023-04-02T15:36:33.006Z,2.76
2023-04-02T15:39:26.048Z,2.88
2023-04-02T15:46:10.299Z,2.93
2023-04-02T15:48:41.854Z,2.65
2023-04-02T15:51:28.926Z,2.83
2023-04-02T15:54:18.691Z,2.53
2023-04-02T15:57:16.644Z,2.50
2023-04-02T16:00:13.070Z,2.11
2023-04-02T16:03:23.591Z,2.43
2023-04-02T16:06:34.033Z,2.24
2023-04-02T16:09:12.330Z,2.48
2023-04-02T16:11:40.586Z,2.41
2023-04-02T16:14:21.347Z,2.55
2023-04-02T16:16:52.594Z,2.30
2023-04-02T16:19:34.885Z,2.26
2023-04-02T16:22:31.702Z,2.17
2023-04-02T16:25:04.661Z,2.33
2023-04-02T16:32:53.058Z,2.85
2023-04-02T16:36:11.428Z,2.33
2023-04-02T16:39:15.514Z,2.69
2023-04-02T16:42:10.534Z,2.67
2023-04-02T16:45:19.289Z,2.40
2023-04-02T16:48:27.802Z,1.97
2023-04-02T16:51:24.118Z,2.45
2023-04-02T16:54:44.939Z,2.44
2023-04-02T16:58:02.070Z,2.21
2023-04-02T17:01:28.711Z,2.38
2023-04-02T17:04:09.004Z,2.62
2023-04-02T17:06:54.219Z,2.44
2023-04-02T17:09:37.829Z,2.49
2023-04-02T17:12:30.522Z,2.44
2023-04-02T17:15:24.580Z,2.30
2023-04-02T17:17:59.017Z,2.48
2023-04-02T17:20:27.299Z,2.74
2023-04-02T17:22:56.102Z,2.53
2023-04-02T17:25:32.992Z,2.31
2023-04-02T17:28:02.753Z,2.06
2023-04-02T17:31:01.801Z,2.32
2023-04-02T17:33:28.689Z,2.55
2023-04-02T17:35:59.599Z,2.23
2023-04-02T17:38:42.178Z,2.61
2023-04-02T17:41:47.908Z,2.28
2023-04-02T17:45:01.579Z,2.42
2023-04-02T17:47:47.433Z,2.62
2023-04-02T17:50:35.542Z,2.33
2023-04-02T17:53:13.246Z,2.37
2023-04-02T17:55:49.797Z,2.40
2023-04-02T17:58:22.915Z,2.87
2023-04-02T18:01:08.159Z,3.30
2023-04-02T18:03:55.739Z,2.41
2023-04-02T18:06:44.604Z,2.83
2023-04-02T18:09:25.833Z,2.57
2023-04-02T18:12:18.360Z,2.76
2023-04-02T18:15:09.533Z,2.92
2023-04-02T18:17:52.966Z,2.93
2023-04-02T18:20:20.316Z,2.28
2023-04-02T18:23:16.041Z,2.36
2023-04-02T18:25:52.143Z,2.70
2023-04-02T18:28:44.111Z,2.64
2023-04-02T18:31:38.041Z,2.39
2023-04-02T18:34:13.812Z,2.44
2023-04-02T18:37:01.435Z,2.38
2023-04-02T18:39:41.664Z,2.48
2023-04-02T18:42:15.070Z,2.64
2023-04-02T18:45:00.611Z,2.89
2023-04-02T18:47:46.742Z,2.78
2023-04-02T18:50:46.864Z,2.44
2023-04-02T18:53:17.954Z,2.63
2023-04-02T18:55:52.763Z,2.10
2023-04-02T18:58:37.010Z,2.58
2023-04-02T19:01:08.889Z,2.73
2023-04-02T19:03:41.730Z,2.88
2023-04-02T19:06:24.221Z,2.53
2023-04-02T19:09:17.099Z,2.26
2023-04-02T19:11:43.991Z,2.66
2023-04-02T19:14:14.393Z,2.59
2023-04-02T19:16:42.308Z,2.55
2023-04-02T19:19:14.145Z,2.88
2023-04-02T19:21:51.707Z,2.27
2023-04-02T19:24:56.903Z,2.41
2023-04-02T19:27:29.763Z,2.21
2023-04-02T19:30:15.562Z,2.46
2023-04-02T19:32:58.141Z,2.40
2023-04-02T19:35:54.293Z,2.24
2023-04-02T19:38:43.234Z,2.36
2023-04-02T19:41:48.628Z,2.57
2023-04-02T19:44:18.109Z,2.59
2023-04-02T19:46:45.966Z,2.39
2023-04-02T19:49:24.213Z,1.66
2023-04-02T19:52:01.201Z,2.24
2023-04-02T19:54:28.301Z,2.20
2023-04-02T19:57:03.110Z,2.64
2023-04-02T19:59:39.223Z,2.52
2023-04-02T20:02:16.037Z,2.64
2023-04-02T20:04:43.014Z,2.65
2023-04-02T20:07:13.876Z,2.40
2023-04-02T20:09:43.009Z,2.63
2023-04-02T20:12:10.063Z,2.64
2023-04-02T20:14:37.288Z,2.89
2023-04-02T20:17:04.211Z,3.01
2023-04-02T20:19:31.627Z,2.88
2023-04-02T20:21:59.311Z,3.08
2023-04-02T20:24:26.238Z,2.47
2023-04-02T20:26:53.252Z,2.60
2023-04-02T20:29:21.329Z,2.64
2023-04-02T20:31:48.665Z,2.27
2023-04-02T20:34:15.893Z,2.47
2023-04-02T20:36:49.644Z,2.53
2023-04-02T20:39:22.522Z,2.16
2023-04-02T20:41:49.393Z,2.31
2023-04-02T20:44:16.872Z,2.40
2023-04-02T20:46:44.207Z,2.46
2023-04-02T20:49:11.715Z,2.22
2023-04-02T20:51:40.852Z,2.52
2023-04-02T20:54:07.909Z,2.42
2023-04-02T20:56:35.087Z,2.42
2023-04-02T20:59:03.614Z,2.22
2023-04-02T21:01:31.668Z,2.82
2023-04-02T21:04:02.330Z,2.44
2023-04-02T21:06:36.151Z,2.45
2023-04-02T21:09:09.491Z,2.93
2023-04-02T21:11:44.732Z,2.71
2023-04-02T21:14:12.425Z,2.57
2023-04-02T21:16:40.155Z,2.30
2023-04-02T21:19:09.333Z,2.63
2023-04-02T21:21:39.686Z,2.40
2023-04-02T21:24:09.142Z,2.54
2023-04-02T21:26:39.640Z,2.80
2023-04-02T21:29:07.283Z,2.67
2023-04-02T21:31:39.000Z,2.39
2023-04-02T21:34:08.681Z,2.47
2023-04-02T21:36:39.632Z,2.59
2023-04-02T21:39:09.506Z,2.45
2023-04-02T21:41:39.355Z,2.83
2023-04-02T21:44:08.419Z,2.62
2023-04-02T21:46:38.617Z,2.86
2023-04-02T21:49:09.782Z,2.96
2023-04-02T21:51:38.726Z,2.59
2023-04-02T21:54:07.579Z,2.83
2023-04-02T21:56:39.229Z,2.75
2023-04-02T21:59:12.603Z,2.67
2023-04-02T22:01:45.979Z,2.68
2023-04-02T22:04:20.981Z,2.70
2023-04-02T22:06:48.476Z,2.17
2023-04-02T22:09:18.351Z,2.80
2023-04-02T22:11:48.808Z,3.11
2023-04-02T22:14:15.899Z,2.61
2023-04-02T22:16:43.833Z,2.26
2023-04-02T22:19:14.331Z,2.92
2023-04-02T22:21:42.004Z,2.98
2023-04-02T22:24:14.368Z,2.57
2023-04-02T22:26:41.926Z,2.93
2023-04-02T22:29:08.726Z,2.53
2023-04-02T22:31:35.952Z,2.51
2023-04-02T22:34:05.740Z,2.50
2023-04-02T22:36:33.372Z,2.43
2023-04-02T22:39:01.258Z,2.50
2023-04-02T22:41:29.393Z,2.54
2023-04-02T22:43:57.606Z,2.16
2023-04-02T22:46:26.798Z,2.09
2023-04-02T22:48:56.020Z,2.39
2023-04-02T22:51:24.228Z,2.71
2023-04-02T22:53:54.168Z,2.66
2023-04-02T22:56:25.268Z,2.49
2023-04-02T22:58:52.809Z,2.01
2023-04-02T23:01:23.995Z,2.45
2023-04-02T23:03:56.456Z,2.05
2023-04-02T23:06:25.495Z,2.10
2023-04-02T23:08:53.635Z,2.34
2023-04-02T23:11:24.243Z,2.34
2023-04-02T23:13:53.034Z,2.37
2023-04-02T23:16:24.419Z,2.57
2023-04-02T23:18:51.823Z,2.18
2023-04-02T23:21:20.222Z,2.60
2023-04-02T23:23:48.877Z,2.69
2023-04-02T23:26:16.999Z,2.55
2023-04-02T23:28:44.753Z,2.21
2023-04-02T23:31:16.983Z,2.52
2023-04-02T23:33:44.073Z,2.39
2023-04-02T23:36:15.172Z,2.86
2023-04-02T23:38:42.285Z,2.45
2023-04-02T23:41:14.900Z,2.26
2023-04-02T23:43:42.625Z,2.01
2023-04-02T23:46:12.792Z,2.26
2023-04-02T23:48:41.263Z,1.95
2023-04-02T23:51:08.006Z,2.14
2023-04-02T23:53:35.518Z,2.41
2023-04-02T23:56:02.528Z,1.92
2023-04-02T23:58:29.608Z,2.35
